createdAt,value
2022-10-19T00:02:05.462Z,86.32
2022-10-19T00:05:28.377Z,80.90
2022-10-19T00:08:50.324Z,75.07
2022-10-19T00:12:13.091Z,78.78
2022-10-19T00:15:40.256Z,75.57
2022-10-19T00:19:05.238Z,81.65
2022-10-19T00:22:27.346Z,80.07
2022-10-19T00:25:56.650Z,71.10
2022-10-19T00:29:19.388Z,76.17
2022-10-19T00:32:41.412Z,69.03
2022-10-19T00:36:05.330Z,71.97
2022-10-19T00:39:27.337Z,71.88
2022-10-19T00:42:55.933Z,79.97
2022-10-19T00:46:18.022Z,64.50
2022-10-19T00:49:43.879Z,70.30
2022-10-19T00:53:06.512Z,66.32
2022-10-19T00:56:28.442Z,64.88
2022-10-19T00:59:51.618Z,57.65
2022-10-19T01:03:14.422Z,62.50
2022-10-19T01:06:36.775Z,60.13
2022-10-19T01:10:00.363Z,63.55
2022-10-19T01:14:01.650Z,63.25
2022-10-19T01:17:33.014Z,50.50
2022-10-19T01:21:16.400Z,54.53
2022-10-19T01:25:02.414Z,54.13
2022-10-19T01:28:33.475Z,49.55
2022-10-19T01:32:16.897Z,46.50
2022-10-19T01:35:54.055Z,53.80
2022-10-19T01:39:19.251Z,50.83
2022-10-19T01:42:47.425Z,46.20
2022-10-19T01:46:33.544Z,48.35
2022-10-19T01:50:13.413Z,53.83
2022-10-19T01:53:43.496Z,54.05
2022-10-19T01:57:09.219Z,51.08
2022-10-19T02:00:38.045Z,45.50
2022-10-19T02:04:01.329Z,47.63
2022-10-19T02:07:25.577Z,48.55
2022-10-19T02:10:48.732Z,44.65
2022-10-19T02:14:14.718Z,44.47
2022-10-19T02:17:42.205Z,44.67
2022-10-19T02:21:05.365Z,53.60
2022-10-19T02:24:29.476Z,50.67
2022-10-19T02:27:51.784Z,57.72
2022-10-19T02:31:14.110Z,59.70
2022-10-19T02:34:37.502Z,51.78
2022-10-19T02:38:02.275Z,54.58
2022-10-19T02:41:39.604Z,60.55
2022-10-19T02:45:07.797Z,55.22
2022-10-19T02:48:32.183Z,57.35
2022-10-19T02:51:59.129Z,60.72
2022-10-19T02:55:21.136Z,59.55
2022-10-19T02:58:43.272Z,52.50
2022-10-19T03:02:05.295Z,55.50
2022-10-19T03:05:30.411Z,57.85
2022-10-19T03:08:52.396Z,56.30
2022-10-19T03:12:15.031Z,52.92
2022-10-19T03:15:37.169Z,65.32
2022-10-19T03:18:59.267Z,64.88
2022-10-19T03:22:21.314Z,62.63
2022-10-19T03:25:43.280Z,54.30
2022-10-19T03:29:05.392Z,62.05
2022-10-19T03:32:27.466Z,62.83
2022-10-19T03:36:16.066Z,62.42
2022-10-19T03:39:40.444Z,62.90
2022-10-19T03:43:02.393Z,70.30
2022-10-19T03:46:25.477Z,65.57
2022-10-19T03:49:47.647Z,62.17
2022-10-19T03:53:09.577Z,54.85
2022-10-19T03:56:32.606Z,61.20
2022-10-19T03:59:54.591Z,59.15
2022-10-19T04:03:16.574Z,56.70
2022-10-19T04:06:43.562Z,58.78
2022-10-19T04:10:06.330Z,58.80
2022-10-19T04:13:29.143Z,49.38
2022-10-19T04:16:51.627Z,52.30
2022-10-19T04:20:13.597Z,56.22
2022-10-19T04:23:36.393Z,59.15
2022-10-19T04:26:58.390Z,57.38
2022-10-19T04:30:20.324Z,56.13
2022-10-19T04:33:42.476Z,64.13
2022-10-19T04:37:04.460Z,55.10
2022-10-19T04:40:26.612Z,59.47
2022-10-19T04:43:49.575Z,58.90
2022-10-19T04:47:11.742Z,60.67
2022-10-19T04:50:33.887Z,58.65
2022-10-19T04:53:59.550Z,61.40
2022-10-19T04:57:22.031Z,60.80
2022-10-19T05:00:44.017Z,56.80
2022-10-19T05:04:06.894Z,49.35
2022-10-19T05:07:28.874Z,55.35
2022-10-19T05:10:50.865Z,54.60
2022-10-19T05:14:12.966Z,61.95
2022-10-19T05:17:35.262Z,58.75
2022-10-19T05:21:06.695Z,53.85
2022-10-19T05:24:57.346Z,49.95
2022-10-19T05:28:20.296Z,49.67
2022-10-19T05:31:42.431Z,47.40
2022-10-19T05:35:04.817Z,45.90
2022-10-19T05:38:26.829Z,45.63
2022-10-19T05:41:48.833Z,51.92
2022-10-19T05:45:11.132Z,55.45
2022-10-19T05:48:34.000Z,55.38
2022-10-19T05:51:56.070Z,50.85
2022-10-19T05:55:31.255Z,55.60
2022-10-19T05:58:55.051Z,49.92
2022-10-19T06:02:17.050Z,49.85
2022-10-19T06:05:39.026Z,54.70
2022-10-19T06:09:01.513Z,64.72
2022-10-19T06:12:25.069Z,57.17
2022-10-19T06:15:51.262Z,61.92
2022-10-19T06:19:13.254Z,62.15
2022-10-19T06:22:35.271Z,58.50
2022-10-19T06:25:57.367Z,67.15
2022-10-19T06:29:19.354Z,66.63
2022-10-19T06:32:41.323Z,67.70
2022-10-19T06:36:15.551Z,78.40
2022-10-19T06:39:37.499Z,72.95
2022-10-19T06:42:59.536Z,69.85
2022-10-19T06:46:23.821Z,69.15
2022-10-19T06:49:45.750Z,70.78
2022-10-19T06:53:14.457Z,67.38
2022-10-19T06:56:36.754Z,72.50
2022-10-19T06:59:58.813Z,78.18
2022-10-19T07:03:20.835Z,55.13
2022-10-19T07:06:42.821Z,58.10
2022-10-19T07:10:05.189Z,50.67
2022-10-19T07:13:30.979Z,126.68
2022-10-19T07:16:53.191Z,99.28
2022-10-19T07:20:15.212Z,95.32
2022-10-19T07:23:39.105Z,37.72
2022-10-19T07:27:01.504Z,33.35
2022-10-19T07:30:24.195Z,36.50
2022-10-19T07:33:47.301Z,45.40
2022-10-19T07:37:09.348Z,39.60
2022-10-19T07:40:31.362Z,36.05
2022-10-19T07:43:54.198Z,38.90
2022-10-19T07:47:16.135Z,38.78
2022-10-19T07:50:38.115Z,38.83
2022-10-19T07:54:00.230Z,35.25
2022-10-19T07:57:22.663Z,42.00
2022-10-19T08:00:44.746Z,38.03
2022-10-19T08:04:49.062Z,42.00
2022-10-19T08:07:48.989Z,38.45
2022-10-19T08:11:14.158Z,43.97
2022-10-19T08:14:36.296Z,39.97
2022-10-19T08:17:58.349Z,48.45
2022-10-19T08:21:20.388Z,51.78
2022-10-19T08:24:42.495Z,44.70
2022-10-19T08:28:04.825Z,50.08
2022-10-19T08:31:27.181Z,46.45
2022-10-19T08:34:49.162Z,42.63
2022-10-19T08:38:11.193Z,52.53
2022-10-19T08:41:54.480Z,47.50
2022-10-19T08:49:03.117Z,54.42
2022-10-19T08:52:33.429Z,51.55
2022-10-19T08:56:26.812Z,61.72
2022-10-19T09:00:19.612Z,50.40
2022-10-19T09:03:56.324Z,56.38
2022-10-19T09:07:28.187Z,50.38
2022-10-19T09:10:53.432Z,54.85
2022-10-19T09:14:31.535Z,54.40
2022-10-19T09:17:53.533Z,55.30
2022-10-19T09:21:30.962Z,56.72
2022-10-19T09:25:05.953Z,53.55
2022-10-19T09:28:46.468Z,49.53
2022-10-19T09:32:19.695Z,53.20
2022-10-19T09:35:44.389Z,57.13
2022-10-19T09:39:06.443Z,56.70
2022-10-19T09:42:33.042Z,65.47
2022-10-19T09:46:18.744Z,56.30
2022-10-19T09:49:44.705Z,62.05
2022-10-19T09:53:18.327Z,58.53
2022-10-19T09:56:52.255Z,58.10
2022-10-19T10:00:23.447Z,53.67
2022-10-19T10:03:53.799Z,56.38
2022-10-19T10:07:18.764Z,51.05
2022-10-19T10:10:45.890Z,50.78
2022-10-19T10:14:31.749Z,59.80
2022-10-19T10:17:55.523Z,48.90
2022-10-19T10:21:25.520Z,55.72
2022-10-19T10:24:55.076Z,57.97
2022-10-19T10:28:22.458Z,59.80
2022-10-19T10:31:45.245Z,54.65
2022-10-19T10:35:18.683Z,52.92
2022-10-19T10:38:51.646Z,57.72
2022-10-19T10:42:18.633Z,51.05
2022-10-19T10:45:54.289Z,53.38
2022-10-19T10:49:36.338Z,56.28
2022-10-19T10:53:05.820Z,61.83
2022-10-19T10:56:32.716Z,62.35
2022-10-19T11:00:13.625Z,64.07
2022-10-19T11:03:37.911Z,64.40
2022-10-19T11:07:05.772Z,65.20
2022-10-19T11:10:39.355Z,60.47
2022-10-19T11:14:25.728Z,70.65
2022-10-19T11:18:15.199Z,67.10
2022-10-19T11:21:44.047Z,64.25
2022-10-19T11:25:29.559Z,64.95
2022-10-19T11:29:06.477Z,65.18
2022-10-19T11:33:12.057Z,60.95
2022-10-19T11:37:12.697Z,60.55
2022-10-19T11:40:59.631Z,57.85
2022-10-19T11:44:52.847Z,53.80
2022-10-19T11:48:54.760Z,63.17
2022-10-19T11:52:41.231Z,57.72
2022-10-19T11:56:10.689Z,61.35
2022-10-19T12:00:03.652Z,51.35
2022-10-19T12:04:01.440Z,54.92
2022-10-19T12:07:32.211Z,60.10
2022-10-19T12:11:24.411Z,60.72
2022-10-19T12:14:51.756Z,53.22
2022-10-19T12:18:26.118Z,46.55
2022-10-19T12:21:50.767Z,50.33
2022-10-19T12:25:15.754Z,52.17
2022-10-19T12:28:41.949Z,49.75
2022-10-19T12:32:06.025Z,62.22
2022-10-19T12:35:48.246Z,45.88
2022-10-19T12:39:28.695Z,50.42
2022-10-19T12:43:03.298Z,56.47
2022-10-19T12:46:49.610Z,53.50
2022-10-19T12:50:14.684Z,53.33
2022-10-19T12:53:38.552Z,48.40
2022-10-19T12:57:02.448Z,51.00
2022-10-19T13:00:28.864Z,42.08
2022-10-19T13:04:06.602Z,43.25
2022-10-19T13:07:37.354Z,33.42
2022-10-19T13:11:17.843Z,30.20
2022-10-19T13:14:45.684Z,42.30
2022-10-19T13:18:16.941Z,40.85
2022-10-19T13:21:53.602Z,39.72
2022-10-19T13:25:28.683Z,40.50
2022-10-19T13:28:55.635Z,43.33
2022-10-19T13:32:37.959Z,35.25
2022-10-19T13:36:00.335Z,41.67
2022-10-19T13:39:24.467Z,45.33
2022-10-19T13:43:01.683Z,42.72
2022-10-19T13:46:33.188Z,41.63
2022-10-19T13:50:20.957Z,44.63
2022-10-19T13:53:53.302Z,43.10
2022-10-19T13:57:52.923Z,43.33
2022-10-19T14:01:29.827Z,47.73
2022-10-19T14:05:12.641Z,48.00
2022-10-19T14:08:59.865Z,43.03
2022-10-19T14:12:30.442Z,44.53
2022-10-19T14:15:58.617Z,43.72
2022-10-19T14:19:30.016Z,47.95
2022-10-19T14:22:52.332Z,46.15
2022-10-19T14:26:38.690Z,48.35
2022-10-19T14:30:26.406Z,42.78
2022-10-19T14:33:53.760Z,42.85
2022-10-19T14:37:20.996Z,46.90
2022-10-19T14:40:43.038Z,46.22
2022-10-19T14:44:49.408Z,45.45
2022-10-19T14:48:22.381Z,44.88
2022-10-19T14:51:55.951Z,49.65
2022-10-19T14:55:20.177Z,49.53
2022-10-19T14:58:53.744Z,52.85
2022-10-19T15:02:21.634Z,51.60
2022-10-19T15:05:49.042Z,49.00
2022-10-19T15:09:47.834Z,48.35
2022-10-19T15:13:28.708Z,46.00
2022-10-19T15:16:50.639Z,51.95
2022-10-19T15:20:55.073Z,52.97
2022-10-19T15:24:29.246Z,45.05
2022-10-19T15:27:53.731Z,44.67
2022-10-19T15:31:28.600Z,44.75
2022-10-19T15:34:51.064Z,47.65
2022-10-19T15:38:27.101Z,44.08
2022-10-19T15:41:49.740Z,43.00
2022-10-19T15:45:36.119Z,43.95
2022-10-19T15:49:42.658Z,46.20
2022-10-19T15:53:08.210Z,51.58
2022-10-19T15:56:32.341Z,40.22
2022-10-19T15:59:57.505Z,43.28
2022-10-19T16:03:19.695Z,45.28
2022-10-19T16:06:45.190Z,41.30
2022-10-19T16:10:14.351Z,42.10
2022-10-19T16:13:36.535Z,41.65
2022-10-19T16:17:01.141Z,50.45
2022-10-19T16:20:24.472Z,44.38
2022-10-19T16:23:46.491Z,43.55
2022-10-19T16:27:09.431Z,44.08
2022-10-19T16:30:32.589Z,45.38
2022-10-19T16:33:54.991Z,44.53
2022-10-19T16:37:16.982Z,51.00
2022-10-19T16:40:39.004Z,44.63
2022-10-19T16:44:01.046Z,50.47
2022-10-19T16:47:23.036Z,44.65
2022-10-19T16:50:45.829Z,49.15
2022-10-19T16:54:10.281Z,46.13
2022-10-19T16:57:32.293Z,47.88
2022-10-19T17:00:56.230Z,52.28
2022-10-19T17:04:18.304Z,52.45
2022-10-19T17:07:40.287Z,50.75
2022-10-19T17:11:22.988Z,48.65
2022-10-19T17:14:45.034Z,53.67
2022-10-19T17:18:07.146Z,50.25
2022-10-19T17:21:31.799Z,58.38
2022-10-19T17:24:55.491Z,52.65
2022-10-19T17:28:17.614Z,57.47
2022-10-19T17:31:40.813Z,61.13
2022-10-19T17:35:02.834Z,72.40
2022-10-19T17:38:24.806Z,83.45
2022-10-19T17:41:48.100Z,82.40
2022-10-19T17:45:11.133Z,76.88
2022-10-19T17:48:35.419Z,70.75
2022-10-19T17:51:57.797Z,63.65
2022-10-19T17:55:19.725Z,67.15
2022-10-19T17:58:42.541Z,59.55
2022-10-19T18:02:07.554Z,59.35
2022-10-19T18:05:29.613Z,65.07
2022-10-19T18:08:54.467Z,62.15
2022-10-19T18:12:16.424Z,57.15
2022-10-19T18:15:39.041Z,57.17
2022-10-19T18:19:08.391Z,57.53
2022-10-19T18:22:31.258Z,66.00
2022-10-19T18:25:54.602Z,60.20
2022-10-19T18:29:23.604Z,60.88
2022-10-19T18:32:49.648Z,59.38
2022-10-19T18:36:12.426Z,63.80
2022-10-19T18:39:35.012Z,61.45
2022-10-19T18:42:57.408Z,58.63
2022-10-19T18:46:21.206Z,62.97
2022-10-19T18:49:43.364Z,58.72
2022-10-19T18:53:05.845Z,59.35
2022-10-19T18:56:29.506Z,57.08
2022-10-19T18:59:51.796Z,60.58
2022-10-19T19:03:14.313Z,59.45
2022-10-19T19:06:37.864Z,54.72
2022-10-19T19:10:00.027Z,62.75
2022-10-19T19:13:26.984Z,57.55
2022-10-19T19:16:49.739Z,65.75
2022-10-19T19:20:13.262Z,65.00
2022-10-19T19:23:35.793Z,62.10
2022-10-19T19:26:59.529Z,60.55
2022-10-19T19:30:22.810Z,56.88
2022-10-19T19:33:49.780Z,66.30
2022-10-19T19:37:13.206Z,66.47
2022-10-19T19:40:38.399Z,64.88
2022-10-19T19:44:00.987Z,62.70
2022-10-19T19:47:23.009Z,66.80
2022-10-19T19:50:46.999Z,66.63
2022-10-19T19:54:09.071Z,70.38
2022-10-19T19:57:31.103Z,72.97
2022-10-19T20:00:53.166Z,77.78
2022-10-19T20:04:15.199Z,79.05
2022-10-19T20:07:37.476Z,71.70
2022-10-19T20:11:08.283Z,73.75
2022-10-19T20:14:30.257Z,61.20
2022-10-19T20:17:52.297Z,56.08
2022-10-19T20:21:15.604Z,62.58
2022-10-19T20:24:37.842Z,57.65
2022-10-19T20:27:59.853Z,57.90
2022-10-19T20:31:22.671Z,57.45
2022-10-19T20:34:44.879Z,62.88
2022-10-19T20:38:06.857Z,59.72
2022-10-19T20:41:29.089Z,55.58
2022-10-19T20:44:51.140Z,70.70
2022-10-19T20:48:13.116Z,55.67
2022-10-19T20:51:39.095Z,57.33
2022-10-19T20:55:01.084Z,49.25
2022-10-19T20:58:23.069Z,45.50
2022-10-19T21:01:48.503Z,40.13
2022-10-19T21:05:10.614Z,33.15
2022-10-19T21:08:34.862Z,33.13
2022-10-19T21:11:56.855Z,33.05
2022-10-19T21:15:18.818Z,30.02
2022-10-19T21:18:41.546Z,32.47
2022-10-19T21:22:06.591Z,34.03
2022-10-19T21:25:30.468Z,45.85
2022-10-19T21:28:53.379Z,37.20
2022-10-19T21:32:15.752Z,38.80
2022-10-19T21:35:37.782Z,42.47
2022-10-19T21:39:00.920Z,45.63
2022-10-19T21:42:24.209Z,47.25
2022-10-19T21:45:59.594Z,51.58
2022-10-19T21:49:36.518Z,50.97
2022-10-19T21:53:03.753Z,51.20
2022-10-19T21:56:27.183Z,46.85
2022-10-19T21:59:49.642Z,43.60
2022-10-19T22:03:11.626Z,47.72
2022-10-19T22:06:35.835Z,43.05
2022-10-19T22:09:57.804Z,49.38
2022-10-19T22:13:19.765Z,40.58
2022-10-19T22:16:42.247Z,50.50
2022-10-19T22:20:04.764Z,45.70
2022-10-19T22:23:26.757Z,51.00
2022-10-19T22:26:50.799Z,43.50
2022-10-19T22:30:12.870Z,48.53
2022-10-19T22:33:35.724Z,44.25
2022-10-19T22:36:58.022Z,42.28
2022-10-19T22:40:20.033Z,46.47
2022-10-19T22:43:42.004Z,36.00
2022-10-19T22:47:04.417Z,42.80
2022-10-19T22:50:26.381Z,44.53
2022-10-19T22:53:48.415Z,38.67
2022-10-19T22:57:11.882Z,44.10
2022-10-19T23:00:33.915Z,41.60
2022-10-19T23:03:56.197Z,38.85
2022-10-19T23:07:18.150Z,50.22
2022-10-19T23:10:40.057Z,40.15
2022-10-19T23:14:02.075Z,41.63
2022-10-19T23:17:24.161Z,41.00
2022-10-19T23:20:57.236Z,41.08
2022-10-19T23:24:19.156Z,37.45
2022-10-19T23:27:41.116Z,37.47
2022-10-19T23:31:09.145Z,45.00
2022-10-19T23:34:31.142Z,39.55
2022-10-19T23:37:53.251Z,46.50
2022-10-19T23:41:16.442Z,44.88
2022-10-19T23:44:38.443Z,43.75
2022-10-19T23:48:00.443Z,45.75
2022-10-19T23:51:22.720Z,44.50
2022-10-19T23:54:44.725Z,47.20
2022-10-19T23:58:06.775Z,43.80
